sensor_id;sensor_type;location;lat;lon;timestamp;temperature;humidity
21612;DHT22;47005;52.292;13.452;2022-08-25T00:00:18;21.40;99.90
21612;DHT22;47005;52.292;13.452;2022-08-25T00:02:43;21.40;99.90
21612;DHT22;47005;52.292;13.452;2022-08-25T00:05:09;21.30;99.90
21612;DHT22;47005;52.292;13.452;2022-08-25T00:07:35;21.30;99.90
21612;DHT22;47005;52.292;13.452;2022-08-25T00:10:01;21.30;99.90
21612;DHT22;47005;52.292;13.452;2022-08-25T00:12:27;21.30;99.90
21612;DHT22;47005;52.292;13.452;2022-08-25T00:14:52;21.30;99.90
21612;DHT22;47005;52.292;13.452;2022-08-25T00:17:19;21.20;99.90
21612;DHT22;47005;52.292;13.452;2022-08-25T00:19:44;21.20;99.90
21612;DHT22;47005;52.292;13.452;2022-08-25T00:22:10;21.20;99.90
21612;DHT22;47005;52.292;13.452;2022-08-25T00:24:36;21.20;99.90
21612;DHT22;47005;52.292;13.452;2022-08-25T00:27:02;21.20;99.90
21612;DHT22;47005;52.292;13.452;2022-08-25T00:29:29;21.20;99.90
21612;DHT22;47005;52.292;13.452;2022-08-25T00:31:55;21.10;99.90
21612;DHT22;47005;52.292;13.452;2022-08-25T00:34:27;21.10;99.90
21612;DHT22;47005;52.292;13.452;2022-08-25T00:36:54;21.10;99.90
21612;DHT22;47005;52.292;13.452;2022-08-25T00:39:21;21.10;99.90
21612;DHT22;47005;52.292;13.452;2022-08-25T00:41:49;21.10;99.90
21612;DHT22;47005;52.292;13.452;2022-08-25T00:44:15;21.10;99.90
21612;DHT22;47005;52.292;13.452;2022-08-25T00:46:47;21.00;99.90
21612;DHT22;47005;52.292;13.452;2022-08-25T00:49:33;21.00;99.90
21612;DHT22;47005;52.292;13.452;2022-08-25T00:57:12;21.00;99.90
21612;DHT22;47005;52.292;13.452;2022-08-25T00:59:39;21.00;99.90
21612;DHT22;47005;52.292;13.452;2022-08-25T01:02:06;21.00;99.90
21612;DHT22;47005;52.292;13.452;2022-08-25T01:04:32;21.00;99.90
21612;DHT22;47005;52.292;13.452;2022-08-25T01:06:59;21.00;99.90
21612;DHT22;47005;52.292;13.452;2022-08-25T01:09:25;20.90;99.90
21612;DHT22;47005;52.292;13.452;2022-08-25T01:11:53;20.90;99.90
21612;DHT22;47005;52.292;13.452;2022-08-25T01:14:19;20.90;99.90
21612;DHT22;47005;52.292;13.452;2022-08-25T01:16:46;20.90;99.90
21612;DHT22;47005;52.292;13.452;2022-08-25T01:19:14;20.90;99.90
21612;DHT22;47005;52.292;13.452;2022-08-25T01:21:45;20.90;99.90
21612;DHT22;47005;52.292;13.452;2022-08-25T01:24:19;20.90;99.90
21612;DHT22;47005;52.292;13.452;2022-08-25T01:26:48;20.80;99.90
21612;DHT22;47005;52.292;13.452;2022-08-25T01:29:13;20.80;99.90
21612;DHT22;47005;52.292;13.452;2022-08-25T01:31:46;20.80;99.90
21612;DHT22;47005;52.292;13.452;2022-08-25T01:34:12;20.80;99.90
21612;DHT22;47005;52.292;13.452;2022-08-25T01:36:39;20.80;99.90
21612;DHT22;47005;52.292;13.452;2022-08-25T01:39:06;20.80;99.90
21612;DHT22;47005;52.292;13.452;2022-08-25T01:44:18;20.80;99.90
21612;DHT22;47005;52.292;13.452;2022-08-25T01:46:44;20.70;99.90
21612;DHT22;47005;52.292;13.452;2022-08-25T01:49:10;20.70;99.90
21612;DHT22;47005;52.292;13.452;2022-08-25T01:51:43;20.70;99.90
21612;DHT22;47005;52.292;13.452;2022-08-25T01:54:11;20.70;99.90
21612;DHT22;47005;52.292;13.452;2022-08-25T01:56:36;20.60;99.90
21612;DHT22;47005;52.292;13.452;2022-08-25T01:59:03;20.60;99.90
21612;DHT22;47005;52.292;13.452;2022-08-25T02:01:29;20.60;99.90
21612;DHT22;47005;52.292;13.452;2022-08-25T02:03:55;20.60;99.90
21612;DHT22;47005;52.292;13.452;2022-08-25T02:06:30;20.60;99.90
21612;DHT22;47005;52.292;13.452;2022-08-25T02:09:04;20.50;99.90
21612;DHT22;47005;52.292;13.452;2022-08-25T02:11:30;20.50;99.90
21612;DHT22;47005;52.292;13.452;2022-08-25T02:13:56;20.50;99.90
21612;DHT22;47005;52.292;13.452;2022-08-25T02:16:30;20.50;99.90
21612;DHT22;47005;52.292;13.452;2022-08-25T02:18:56;20.50;99.90
21612;DHT22;47005;52.292;13.452;2022-08-25T02:21:22;20.50;99.90
21612;DHT22;47005;52.292;13.452;2022-08-25T02:23:48;20.50;99.90
21612;DHT22;47005;52.292;13.452;2022-08-25T02:26:14;20.50;99.90
21612;DHT22;47005;52.292;13.452;2022-08-25T02:28:42;20.50;99.90
21612;DHT22;47005;52.292;13.452;2022-08-25T02:31:08;20.40;99.90
21612;DHT22;47005;52.292;13.452;2022-08-25T02:33:34;20.40;99.90
21612;DHT22;47005;52.292;13.452;2022-08-25T02:36:00;20.40;99.90
21612;DHT22;47005;52.292;13.452;2022-08-25T02:38:28;20.40;99.90
21612;DHT22;47005;52.292;13.452;2022-08-25T02:40:54;20.40;99.90
21612;DHT22;47005;52.292;13.452;2022-08-25T02:43:20;20.40;99.90
21612;DHT22;47005;52.292;13.452;2022-08-25T02:45:46;20.40;99.90
21612;DHT22;47005;52.292;13.452;2022-08-25T02:48:12;20.30;99.90
21612;DHT22;47005;52.292;13.452;2022-08-25T02:50:38;20.30;99.90
21612;DHT22;47005;52.292;13.452;2022-08-25T02:53:04;20.30;99.90
21612;DHT22;47005;52.292;13.452;2022-08-25T02:55:29;20.30;99.90
21612;DHT22;47005;52.292;13.452;2022-08-25T02:57:55;20.30;99.90
21612;DHT22;47005;52.292;13.452;2022-08-25T03:00:21;20.30;99.90
21612;DHT22;47005;52.292;13.452;2022-08-25T03:02:47;20.30;99.90
21612;DHT22;47005;52.292;13.452;2022-08-25T03:05:14;20.30;99.90
21612;DHT22;47005;52.292;13.452;2022-08-25T03:07:39;20.30;99.90
21612;DHT22;47005;52.292;13.452;2022-08-25T03:10:07;20.20;99.90
21612;DHT22;47005;52.292;13.452;2022-08-25T03:12:33;20.20;99.90
21612;DHT22;47005;52.292;13.452;2022-08-25T03:14:59;20.20;99.90
21612;DHT22;47005;52.292;13.452;2022-08-25T03:17:25;20.20;99.90
21612;DHT22;47005;52.292;13.452;2022-08-25T03:19:50;20.20;99.90
21612;DHT22;47005;52.292;13.452;2022-08-25T03:22:16;20.10;99.90
21612;DHT22;47005;52.292;13.452;2022-08-25T03:24:41;20.10;99.90
21612;DHT22;47005;52.292;13.452;2022-08-25T03:27:07;20.20;99.90
21612;DHT22;47005;52.292;13.452;2022-08-25T03:29:33;20.10;99.90
21612;DHT22;47005;52.292;13.452;2022-08-25T03:32:00;20.10;99.90
21612;DHT22;47005;52.292;13.452;2022-08-25T03:34:28;20.10;99.90
21612;DHT22;47005;52.292;13.452;2022-08-25T03:36:55;20.10;99.90
21612;DHT22;47005;52.292;13.452;2022-08-25T03:39:23;20.00;99.90
21612;DHT22;47005;52.292;13.452;2022-08-25T03:41:49;20.00;99.90
21612;DHT22;47005;52.292;13.452;2022-08-25T03:44:17;20.10;99.90
21612;DHT22;47005;52.292;13.452;2022-08-25T03:46:48;20.00;99.90
21612;DHT22;47005;52.292;13.452;2022-08-25T03:49:21;20.00;99.90
21612;DHT22;47005;52.292;13.452;2022-08-25T03:51:49;20.00;99.90
21612;DHT22;47005;52.292;13.452;2022-08-25T03:54:18;20.00;99.90
21612;DHT22;47005;52.292;13.452;2022-08-25T03:56:44;20.00;99.90
21612;DHT22;47005;52.292;13.452;2022-08-25T03:59:11;20.00;99.90
21612;DHT22;47005;52.292;13.452;2022-08-25T04:01:39;19.90;99.90
21612;DHT22;47005;52.292;13.452;2022-08-25T04:04:06;20.00;99.90
21612;DHT22;47005;52.292;13.452;2022-08-25T04:06:33;19.90;99.90
21612;DHT22;47005;52.292;13.452;2022-08-25T04:08:58;19.90;99.90
21612;DHT22;47005;52.292;13.452;2022-08-25T04:11:25;19.90;99.90
21612;DHT22;47005;52.292;13.452;2022-08-25T04:13:52;19.90;99.90
21612;DHT22;47005;52.292;13.452;2022-08-25T04:16:19;19.90;99.90
21612;DHT22;47005;52.292;13.452;2022-08-25T04:18:46;19.90;99.90
21612;DHT22;47005;52.292;13.452;2022-08-25T04:21:13;19.90;99.90
21612;DHT22;47005;52.292;13.452;2022-08-25T04:23:40;19.90;99.90
21612;DHT22;47005;52.292;13.452;2022-08-25T04:26:21;19.90;99.90
21612;DHT22;47005;52.292;13.452;2022-08-25T04:28:48;19.90;99.90
21612;DHT22;47005;52.292;13.452;2022-08-25T04:31:14;19.90;99.90
21612;DHT22;47005;52.292;13.452;2022-08-25T04:33:40;19.90;99.90
21612;DHT22;47005;52.292;13.452;2022-08-25T04:36:08;19.80;99.90
21612;DHT22;47005;52.292;13.452;2022-08-25T04:38:37;19.90;99.90
21612;DHT22;47005;52.292;13.452;2022-08-25T04:41:04;19.80;99.90
21612;DHT22;47005;52.292;13.452;2022-08-25T04:43:31;19.90;99.90
21612;DHT22;47005;52.292;13.452;2022-08-25T04:45:57;19.80;99.90
21612;DHT22;47005;52.292;13.452;2022-08-25T04:48:25;19.80;99.90
21612;DHT22;47005;52.292;13.452;2022-08-25T04:50:50;19.80;99.90
21612;DHT22;47005;52.292;13.452;2022-08-25T04:53:16;19.80;99.90
21612;DHT22;47005;52.292;13.452;2022-08-25T04:55:46;19.80;99.90
21612;DHT22;47005;52.292;13.452;2022-08-25T04:58:15;19.80;99.90
21612;DHT22;47005;52.292;13.452;2022-08-25T05:00:41;19.80;99.90
21612;DHT22;47005;52.292;13.452;2022-08-25T05:03:08;19.80;99.90
21612;DHT22;47005;52.292;13.452;2022-08-25T05:05:37;19.80;99.90
21612;DHT22;47005;52.292;13.452;2022-08-25T05:08:04;19.80;99.90
21612;DHT22;47005;52.292;13.452;2022-08-25T05:10:32;19.80;99.90
21612;DHT22;47005;52.292;13.452;2022-08-25T05:12:57;19.80;99.90
21612;DHT22;47005;52.292;13.452;2022-08-25T05:15:25;19.90;99.90
21612;DHT22;47005;52.292;13.452;2022-08-25T05:18:09;19.80;99.90
21612;DHT22;47005;52.292;13.452;2022-08-25T05:20:36;19.80;99.90
21612;DHT22;47005;52.292;13.452;2022-08-25T05:23:02;19.90;99.90
21612;DHT22;47005;52.292;13.452;2022-08-25T05:25:28;19.90;99.90
21612;DHT22;47005;52.292;13.452;2022-08-25T05:27:53;19.90;99.90
21612;DHT22;47005;52.292;13.452;2022-08-25T05:30:19;19.90;99.90
21612;DHT22;47005;52.292;13.452;2022-08-25T05:32:44;19.90;99.90
21612;DHT22;47005;52.292;13.452;2022-08-25T05:35:10;19.90;99.90
21612;DHT22;47005;52.292;13.452;2022-08-25T05:37:36;19.90;99.90
21612;DHT22;47005;52.292;13.452;2022-08-25T05:40:04;19.90;99.90
21612;DHT22;47005;52.292;13.452;2022-08-25T05:42:30;19.90;99.90
21612;DHT22;47005;52.292;13.452;2022-08-25T05:44:55;19.90;99.90
21612;DHT22;47005;52.292;13.452;2022-08-25T05:47:21;20.00;99.90
21612;DHT22;47005;52.292;13.452;2022-08-25T05:49:47;20.00;99.90
21612;DHT22;47005;52.292;13.452;2022-08-25T05:52:13;20.00;99.90
21612;DHT22;47005;52.292;13.452;2022-08-25T05:54:38;20.00;99.90
21612;DHT22;47005;52.292;13.452;2022-08-25T05:57:05;20.00;99.90
21612;DHT22;47005;52.292;13.452;2022-08-25T05:59:31;20.00;99.90
21612;DHT22;47005;52.292;13.452;2022-08-25T06:01:57;20.00;99.90
21612;DHT22;47005;52.292;13.452;2022-08-25T06:04:41;20.00;99.90
21612;DHT22;47005;52.292;13.452;2022-08-25T06:07:07;20.00;99.90
21612;DHT22;47005;52.292;13.452;2022-08-25T06:09:32;20.00;99.90
21612;DHT22;47005;52.292;13.452;2022-08-25T06:11:58;20.10;99.90
21612;DHT22;47005;52.292;13.452;2022-08-25T06:14:24;20.10;99.90
21612;DHT22;47005;52.292;13.452;2022-08-25T06:16:50;20.10;99.90
21612;DHT22;47005;52.292;13.452;2022-08-25T06:19:16;20.10;99.90
21612;DHT22;47005;52.292;13.452;2022-08-25T06:21:42;20.10;99.90
21612;DHT22;47005;52.292;13.452;2022-08-25T06:24:09;20.20;99.90
21612;DHT22;47005;52.292;13.452;2022-08-25T06:26:36;20.20;99.90
21612;DHT22;47005;52.292;13.452;2022-08-25T06:29:02;20.20;99.90
21612;DHT22;47005;52.292;13.452;2022-08-25T06:31:28;20.20;99.90
21612;DHT22;47005;52.292;13.452;2022-08-25T06:33:53;20.20;99.90
21612;DHT22;47005;52.292;13.452;2022-08-25T06:36:19;20.20;99.90
21612;DHT22;47005;52.292;13.452;2022-08-25T06:38:46;20.20;99.90
21612;DHT22;47005;52.292;13.452;2022-08-25T06:41:12;20.20;99.90
21612;DHT22;47005;52.292;13.452;2022-08-25T06:43:40;20.20;99.90
21612;DHT22;47005;52.292;13.452;2022-08-25T06:46:12;20.20;99.90
21612;DHT22;47005;52.292;13.452;2022-08-25T06:48:39;20.20;99.90
21612;DHT22;47005;52.292;13.452;2022-08-25T06:51:10;20.20;99.90
21612;DHT22;47005;52.292;13.452;2022-08-25T06:53:36;20.20;99.90
21612;DHT22;47005;52.292;13.452;2022-08-25T06:56:03;20.20;99.90
21612;DHT22;47005;52.292;13.452;2022-08-25T06:58:29;20.20;99.90
21612;DHT22;47005;52.292;13.452;2022-08-25T07:00:55;20.20;99.90
21612;DHT22;47005;52.292;13.452;2022-08-25T07:03:20;20.20;99.90
21612;DHT22;47005;52.292;13.452;2022-08-25T07:05:51;20.20;99.90
21612;DHT22;47005;52.292;13.452;2022-08-25T07:08:17;20.20;99.90
21612;DHT22;47005;52.292;13.452;2022-08-25T07:10:43;20.20;99.90
21612;DHT22;47005;52.292;13.452;2022-08-25T07:13:09;20.20;99.90
21612;DHT22;47005;52.292;13.452;2022-08-25T07:15:37;20.30;99.90
21612;DHT22;47005;52.292;13.452;2022-08-25T07:18:04;20.30;99.90
21612;DHT22;47005;52.292;13.452;2022-08-25T07:20:30;20.30;99.90
21612;DHT22;47005;52.292;13.452;2022-08-25T07:22:56;20.30;99.90
21612;DHT22;47005;52.292;13.452;2022-08-25T07:25:22;20.30;99.90
21612;DHT22;47005;52.292;13.452;2022-08-25T07:27:48;20.30;99.90
21612;DHT22;47005;52.292;13.452;2022-08-25T07:30:15;20.30;99.90
21612;DHT22;47005;52.292;13.452;2022-08-25T07:32:41;20.30;99.90
21612;DHT22;47005;52.292;13.452;2022-08-25T07:35:07;20.30;99.90
21612;DHT22;47005;52.292;13.452;2022-08-25T07:37:49;20.40;99.90
21612;DHT22;47005;52.292;13.452;2022-08-25T07:40:18;20.30;99.90
21612;DHT22;47005;52.292;13.452;2022-08-25T07:42:47;20.40;99.90
21612;DHT22;47005;52.292;13.452;2022-08-25T07:45:13;20.40;99.90
21612;DHT22;47005;52.292;13.452;2022-08-25T07:47:39;20.40;99.90
21612;DHT22;47005;52.292;13.452;2022-08-25T07:50:07;20.40;99.90
21612;DHT22;47005;52.292;13.452;2022-08-25T07:52:32;20.40;99.90
21612;DHT22;47005;52.292;13.452;2022-08-25T07:54:58;20.40;99.90
21612;DHT22;47005;52.292;13.452;2022-08-25T07:57:24;20.40;99.90
21612;DHT22;47005;52.292;13.452;2022-08-25T07:59:51;20.50;99.90
21612;DHT22;47005;52.292;13.452;2022-08-25T08:02:17;20.50;99.90
21612;DHT22;47005;52.292;13.452;2022-08-25T08:04:43;20.50;99.90
21612;DHT22;47005;52.292;13.452;2022-08-25T08:07:10;20.50;99.90
21612;DHT22;47005;52.292;13.452;2022-08-25T08:09:36;20.50;99.90
21612;DHT22;47005;52.292;13.452;2022-08-25T08:12:03;20.50;99.90
21612;DHT22;47005;52.292;13.452;2022-08-25T08:14:30;20.60;99.90
21612;DHT22;47005;52.292;13.452;2022-08-25T08:16:55;20.60;99.90
21612;DHT22;47005;52.292;13.452;2022-08-25T08:19:22;20.60;99.90
21612;DHT22;47005;52.292;13.452;2022-08-25T08:21:47;20.60;99.90
21612;DHT22;47005;52.292;13.452;2022-08-25T08:24:14;20.60;99.90
21612;DHT22;47005;52.292;13.452;2022-08-25T08:26:40;20.60;99.90
21612;DHT22;47005;52.292;13.452;2022-08-25T08:29:06;20.70;99.90
21612;DHT22;47005;52.292;13.452;2022-08-25T08:31:31;20.70;99.90
21612;DHT22;47005;52.292;13.452;2022-08-25T08:33:57;20.70;99.90
21612;DHT22;47005;52.292;13.452;2022-08-25T08:36:24;20.70;99.90
21612;DHT22;47005;52.292;13.452;2022-08-25T08:38:50;20.70;99.90
21612;DHT22;47005;52.292;13.452;2022-08-25T08:41:47;20.80;99.90
21612;DHT22;47005;52.292;13.452;2022-08-25T08:52:45;20.90;99.90
21612;DHT22;47005;52.292;13.452;2022-08-25T08:57:59;20.90;99.90
21612;DHT22;47005;52.292;13.452;2022-08-25T09:00:27;21.00;99.90
21612;DHT22;47005;52.292;13.452;2022-08-25T09:03:04;21.00;99.90
21612;DHT22;47005;52.292;13.452;2022-08-25T09:05:34;21.00;99.90
21612;DHT22;47005;52.292;13.452;2022-08-25T09:08:04;21.00;99.90
21612;DHT22;47005;52.292;13.452;2022-08-25T09:16:21;21.10;99.90
21612;DHT22;47005;52.292;13.452;2022-08-25T09:22:10;21.20;99.90
21612;DHT22;47005;52.292;13.452;2022-08-25T09:27:39;21.30;99.90
21612;DHT22;47005;52.292;13.452;2022-08-25T09:30:10;21.30;99.90
21612;DHT22;47005;52.292;13.452;2022-08-25T09:32:51;21.30;99.90
21612;DHT22;47005;52.292;13.452;2022-08-25T09:35:28;21.40;99.90
21612;DHT22;47005;52.292;13.452;2022-08-25T09:38:03;21.40;99.90
21612;DHT22;47005;52.292;13.452;2022-08-25T09:40:41;21.40;99.90
21612;DHT22;47005;52.292;13.452;2022-08-25T09:45:54;21.50;99.90
21612;DHT22;47005;52.292;13.452;2022-08-25T09:48:26;21.50;99.90
21612;DHT22;47005;52.292;13.452;2022-08-25T09:50:57;21.50;99.90
21612;DHT22;47005;52.292;13.452;2022-08-25T09:53:26;21.60;99.90
21612;DHT22;47005;52.292;13.452;2022-08-25T09:55:57;21.70;99.90
21612;DHT22;47005;52.292;13.452;2022-08-25T09:58:24;21.70;99.90
21612;DHT22;47005;52.292;13.452;2022-08-25T10:01:02;21.70;99.90
21612;DHT22;47005;52.292;13.452;2022-08-25T10:03:29;21.80;99.90
21612;DHT22;47005;52.292;13.452;2022-08-25T10:09:00;21.80;99.90
21612;DHT22;47005;52.292;13.452;2022-08-25T10:14:03;21.90;99.90
21612;DHT22;47005;52.292;13.452;2022-08-25T10:16:31;21.90;99.90
21612;DHT22;47005;52.292;13.452;2022-08-25T10:19:13;22.00;99.90
21612;DHT22;47005;52.292;13.452;2022-08-25T10:22:02;22.00;99.90
21612;DHT22;47005;52.292;13.452;2022-08-25T10:24:28;22.00;99.90
21612;DHT22;47005;52.292;13.452;2022-08-25T10:27:03;22.00;99.90
21612;DHT22;47005;52.292;13.452;2022-08-25T10:30:16;22.10;99.90
21612;DHT22;47005;52.292;13.452;2022-08-25T10:34:57;22.10;99.90
21612;DHT22;47005;52.292;13.452;2022-08-25T10:43:23;22.20;99.90
21612;DHT22;47005;52.292;13.452;2022-08-25T10:57:21;22.40;99.90
21612;DHT22;47005;52.292;13.452;2022-08-25T11:00:03;22.40;99.90
21612;DHT22;47005;52.292;13.452;2022-08-25T11:05:20;22.50;99.90
21612;DHT22;47005;52.292;13.452;2022-08-25T11:07:50;22.50;99.90
21612;DHT22;47005;52.292;13.452;2022-08-25T11:10:21;22.50;99.90
21612;DHT22;47005;52.292;13.452;2022-08-25T11:12:59;22.60;99.90
21612;DHT22;47005;52.292;13.452;2022-08-25T11:15:32;22.70;99.90
21612;DHT22;47005;52.292;13.452;2022-08-25T11:18:06;22.70;99.90
21612;DHT22;47005;52.292;13.452;2022-08-25T11:20:39;22.80;99.90
21612;DHT22;47005;52.292;13.452;2022-08-25T11:23:25;22.80;99.90
21612;DHT22;47005;52.292;13.452;2022-08-25T11:25:55;22.90;99.90
21612;DHT22;47005;52.292;13.452;2022-08-25T11:28:35;22.90;99.90
21612;DHT22;47005;52.292;13.452;2022-08-25T11:31:02;23.00;99.90
21612;DHT22;47005;52.292;13.452;2022-08-25T11:33:29;23.00;99.90
21612;DHT22;47005;52.292;13.452;2022-08-25T11:35:56;23.00;99.90
21612;DHT22;47005;52.292;13.452;2022-08-25T11:43:58;23.10;99.90
21612;DHT22;47005;52.292;13.452;2022-08-25T11:52:04;23.30;99.90
21612;DHT22;47005;52.292;13.452;2022-08-25T11:54:35;23.30;99.90
21612;DHT22;47005;52.292;13.452;2022-08-25T11:57:09;23.30;99.90
21612;DHT22;47005;52.292;13.452;2022-08-25T12:02:48;23.40;99.90
21612;DHT22;47005;52.292;13.452;2022-08-25T12:11:05;23.50;99.90
21612;DHT22;47005;52.292;13.452;2022-08-25T12:13:46;23.60;99.90
21612;DHT22;47005;52.292;13.452;2022-08-25T12:16:36;23.60;99.90
21612;DHT22;47005;52.292;13.452;2022-08-25T12:21:46;23.70;99.90
21612;DHT22;47005;52.292;13.452;2022-08-25T12:24:14;23.70;99.90
21612;DHT22;47005;52.292;13.452;2022-08-25T12:37:23;23.80;99.90
21612;DHT22;47005;52.292;13.452;2022-08-25T12:39:54;23.80;99.90
21612;DHT22;47005;52.292;13.452;2022-08-25T12:47:46;23.90;99.90
21612;DHT22;47005;52.292;13.452;2022-08-25T12:50:34;23.90;99.90
21612;DHT22;47005;52.292;13.452;2022-08-25T12:55:53;24.00;99.90
21612;DHT22;47005;52.292;13.452;2022-08-25T12:58:23;24.00;99.90
21612;DHT22;47005;52.292;13.452;2022-08-25T13:01:13;24.00;99.90
21612;DHT22;47005;52.292;13.452;2022-08-25T13:12:16;24.10;99.90
21612;DHT22;47005;52.292;13.452;2022-08-25T13:14:53;24.10;99.90
21612;DHT22;47005;52.292;13.452;2022-08-25T13:17:29;24.10;99.90
21612;DHT22;47005;52.292;13.452;2022-08-25T13:20:15;24.10;99.90
21612;DHT22;47005;52.292;13.452;2022-08-25T13:22:52;24.20;99.90
21612;DHT22;47005;52.292;13.452;2022-08-25T13:25:22;24.20;99.90
21612;DHT22;47005;52.292;13.452;2022-08-25T13:27:54;24.20;99.90
21612;DHT22;47005;52.292;13.452;2022-08-25T13:30:27;24.20;99.90
21612;DHT22;47005;52.292;13.452;2022-08-25T13:32:53;24.20;99.90
21612;DHT22;47005;52.292;13.452;2022-08-25T13:35:30;24.20;99.90
21612;DHT22;47005;52.292;13.452;2022-08-25T13:38:17;24.20;99.90
21612;DHT22;47005;52.292;13.452;2022-08-25T13:40:42;24.30;99.90
21612;DHT22;47005;52.292;13.452;2022-08-25T13:43:10;24.40;99.90
21612;DHT22;47005;52.292;13.452;2022-08-25T13:45:42;24.40;99.90
21612;DHT22;47005;52.292;13.452;2022-08-25T13:48:10;24.50;99.90
21612;DHT22;47005;52.292;13.452;2022-08-25T13:50:39;24.50;99.90
21612;DHT22;47005;52.292;13.452;2022-08-25T13:58:05;24.60;99.90
21612;DHT22;47005;52.292;13.452;2022-08-25T14:01:15;24.60;99.90
21612;DHT22;47005;52.292;13.452;2022-08-25T14:03:43;24.60;99.90
21612;DHT22;47005;52.292;13.452;2022-08-25T14:11:30;24.70;99.90
21612;DHT22;47005;52.292;13.452;2022-08-25T14:16:25;24.80;99.90
21612;DHT22;47005;52.292;13.452;2022-08-25T14:18:53;24.80;99.90
21612;DHT22;47005;52.292;13.452;2022-08-25T14:21:24;24.80;99.90
21612;DHT22;47005;52.292;13.452;2022-08-25T14:23:52;24.80;99.90
21612;DHT22;47005;52.292;13.452;2022-08-25T14:26:19;24.90;99.90
21612;DHT22;47005;52.292;13.452;2022-08-25T14:28:45;24.90;99.90
21612;DHT22;47005;52.292;13.452;2022-08-25T14:33:55;24.90;99.90
21612;DHT22;47005;52.292;13.452;2022-08-25T14:36:22;24.90;99.90
21612;DHT22;47005;52.292;13.452;2022-08-25T14:38:48;25.00;99.90
21612;DHT22;47005;52.292;13.452;2022-08-25T14:41:14;25.00;99.90
21612;DHT22;47005;52.292;13.452;2022-08-25T14:43:40;25.00;99.90
21612;DHT22;47005;52.292;13.452;2022-08-25T14:46:16;25.00;99.90
21612;DHT22;47005;52.292;13.452;2022-08-25T14:48:44;25.00;99.90
21612;DHT22;47005;52.292;13.452;2022-08-25T14:51:13;25.00;99.90
21612;DHT22;47005;52.292;13.452;2022-08-25T14:53:40;25.00;99.90
21612;DHT22;47005;52.292;13.452;2022-08-25T14:56:06;25.00;99.90
21612;DHT22;47005;52.292;13.452;2022-08-25T14:58:32;25.00;99.90
21612;DHT22;47005;52.292;13.452;2022-08-25T15:00:58;25.00;99.90
21612;DHT22;47005;52.292;13.452;2022-08-25T15:03:30;25.00;99.90
21612;DHT22;47005;52.292;13.452;2022-08-25T15:05:57;25.00;99.90
21612;DHT22;47005;52.292;13.452;2022-08-25T15:08:24;25.00;99.90
21612;DHT22;47005;52.292;13.452;2022-08-25T15:11:08;25.00;99.90
21612;DHT22;47005;52.292;13.452;2022-08-25T15:13:33;25.10;99.90
21612;DHT22;47005;52.292;13.452;2022-08-25T15:15:59;25.10;99.90
21612;DHT22;47005;52.292;13.452;2022-08-25T15:18:25;25.10;99.90
21612;DHT22;47005;52.292;13.452;2022-08-25T15:20:51;25.20;99.90
21612;DHT22;47005;52.292;13.452;2022-08-25T15:23:17;25.20;99.90
21612;DHT22;47005;52.292;13.452;2022-08-25T15:25:45;25.20;99.90
21612;DHT22;47005;52.292;13.452;2022-08-25T15:28:11;25.20;99.90
21612;DHT22;47005;52.292;13.452;2022-08-25T15:30:37;25.20;99.90
21612;DHT22;47005;52.292;13.452;2022-08-25T15:33:03;25.20;99.90
21612;DHT22;47005;52.292;13.452;2022-08-25T15:35:29;25.20;99.90
21612;DHT22;47005;52.292;13.452;2022-08-25T15:37:55;25.30;99.90
21612;DHT22;47005;52.292;13.452;2022-08-25T15:40:20;25.20;99.90
21612;DHT22;47005;52.292;13.452;2022-08-25T15:42:46;25.20;99.90
21612;DHT22;47005;52.292;13.452;2022-08-25T15:45:12;25.20;99.90
21612;DHT22;47005;52.292;13.452;2022-08-25T15:47:38;25.20;99.90
21612;DHT22;47005;52.292;13.452;2022-08-25T15:50:12;25.20;99.90
21612;DHT22;47005;52.292;13.452;2022-08-25T15:52:39;25.20;99.90
21612;DHT22;47005;52.292;13.452;2022-08-25T15:55:05;25.30;99.90
21612;DHT22;47005;52.292;13.452;2022-08-25T15:57:32;25.20;99.90
21612;DHT22;47005;52.292;13.452;2022-08-25T15:59:58;25.30;99.90
21612;DHT22;47005;52.292;13.452;2022-08-25T16:02:24;25.30;99.90
21612;DHT22;47005;52.292;13.452;2022-08-25T16:04:50;25.30;99.90
21612;DHT22;47005;52.292;13.452;2022-08-25T16:07:18;25.30;99.90
21612;DHT22;47005;52.292;13.452;2022-08-25T16:09:43;25.30;99.90
21612;DHT22;47005;52.292;13.452;2022-08-25T16:12:09;25.30;99.90
21612;DHT22;47005;52.292;13.452;2022-08-25T16:14:36;25.20;99.90
21612;DHT22;47005;52.292;13.452;2022-08-25T16:17:03;25.20;99.90
21612;DHT22;47005;52.292;13.452;2022-08-25T16:19:29;25.20;99.90
21612;DHT22;47005;52.292;13.452;2022-08-25T16:21:56;25.20;99.90
21612;DHT22;47005;52.292;13.452;2022-08-25T16:24:22;25.20;99.90
21612;DHT22;47005;52.292;13.452;2022-08-25T16:26:47;25.30;99.90
21612;DHT22;47005;52.292;13.452;2022-08-25T16:29:14;25.30;99.90
21612;DHT22;47005;52.292;13.452;2022-08-25T16:31:40;25.30;99.90
21612;DHT22;47005;52.292;13.452;2022-08-25T16:34:06;25.30;99.90
21612;DHT22;47005;52.292;13.452;2022-08-25T16:36:31;25.30;99.90
21612;DHT22;47005;52.292;13.452;2022-08-25T16:38:57;25.30;99.90
21612;DHT22;47005;52.292;13.452;2022-08-25T16:41:28;25.40;99.90
21612;DHT22;47005;52.292;13.452;2022-08-25T16:43:59;25.40;99.90
21612;DHT22;47005;52.292;13.452;2022-08-25T16:46:25;25.40;99.90
21612;DHT22;47005;52.292;13.452;2022-08-25T16:48:51;25.50;99.90
21612;DHT22;47005;52.292;13.452;2022-08-25T16:51:19;25.50;99.90
21612;DHT22;47005;52.292;13.452;2022-08-25T16:53:46;25.50;99.90
21612;DHT22;47005;52.292;13.452;2022-08-25T16:56:33;25.50;99.90
21612;DHT22;47005;52.292;13.452;2022-08-25T16:59:00;25.50;99.90
21612;DHT22;47005;52.292;13.452;2022-08-25T17:01:28;25.50;99.90
21612;DHT22;47005;52.292;13.452;2022-08-25T17:03:55;25.40;99.90
21612;DHT22;47005;52.292;13.452;2022-08-25T17:06:23;25.40;99.90
21612;DHT22;47005;52.292;13.452;2022-08-25T17:08:49;25.40;99.90
21612;DHT22;47005;52.292;13.452;2022-08-25T17:11:18;25.40;99.90
21612;DHT22;47005;52.292;13.452;2022-08-25T17:13:46;25.40;99.90
21612;DHT22;47005;52.292;13.452;2022-08-25T17:16:15;25.30;99.90
21612;DHT22;47005;52.292;13.452;2022-08-25T17:18:41;25.40;99.90
21612;DHT22;47005;52.292;13.452;2022-08-25T17:21:12;25.30;99.90
21612;DHT22;47005;52.292;13.452;2022-08-25T17:23:40;25.30;99.90
21612;DHT22;47005;52.292;13.452;2022-08-25T17:26:09;25.30;99.90
21612;DHT22;47005;52.292;13.452;2022-08-25T17:28:35;25.30;99.90
21612;DHT22;47005;52.292;13.452;2022-08-25T17:31:01;25.20;99.90